^^
Station Historical Data
Daily Summary for December 07, 2017 Units:  Metric    English   Both
« Previous Day
Next Day »
Daily Weekly Monthly Yearly Custom
  High: Low: Average:
Temperature: 5.4 °C -2.3 °C 1.3 °C
Dew Point: -1.6 °C -5.7 °C -4.4 °C
Humidity: 78 % 50 % 67 %
Wind Speed: 17.9 km/h 0 km/h 2.6 km/h
Wind Gust: 33.3 km/h - -
Wind:- - WSW
Pressure: 1019.2 hPa 1015.5 hPa -
Precipitation: 0 mm    
Historical Graphs
 
 
Tabular Data for December 07, 2017
Time Temperature Dew Point Pressure Wind Wind Speed Wind Gust Humidity Rainfall Rate (Hourly) solar Conditions
00:00 -1.5 °C -4.8 °C 1016.5 hPa Calm     78 % 0 mm 0.0 W/m2 CLR
00:05 -1.6 °C -4.9 °C 1016.5 hPa Calm     78 % 0 mm 0.0 W/m2 RA
00:10 -1.6 °C -4.9 °C 1016.5 hPa Calm     78 % 0 mm 0.0 W/m2 RA
00:14 -1.6 °C -4.9 °C 1016.5 hPa Calm     78 % 0 mm 0.0 W/m2 CLR
00:19 -1.4 °C -4.8 °C 1016.5 hPa Calm     78 % 0 mm 0.0 W/m2 CLR
00:24 -1.3 °C -4.7 °C 1016.5 hPa Calm     78 % 0 mm 0.0 W/m2 BKN
00:29 -1.4 °C -4.9 °C 1016.5 hPa Calm     77 % 0 mm 0.0 W/m2 BKN
00:34 -1.4 °C -4.9 °C 1016.5 hPa Calm     77 % 0 mm 0.0 W/m2 BKN
00:39 -1.4 °C -4.9 °C 1016.5 hPa Calm     77 % 0 mm 0.0 W/m2 BKN
00:44 -1.4 °C -4.9 °C 1016.5 hPa Calm     77 % 0 mm 0.0 W/m2 BKN
00:50 -1.3 °C -4.8 °C 1016.5 hPa Calm     77 % 0 mm 0.0 W/m2 BKN
00:55 -1 °C -4.7 °C 1016.5 hPa Calm     76 % 0 mm 0.0 W/m2 BKN
01:00 -0.7 °C -4.6 °C 1016.5 hPa WSW 0.2 km/h 5.6 km/h 75 % 0 mm 0.0 W/m2 BKN
01:05 -0.5 °C -4.6 °C 1016.1 hPa WSW 1.1 km/h 9.3 km/h 74 % 0 mm 0.0 W/m2 CLR
01:10 -0.3 °C -4.8 °C 1016.5 hPa SW 0.6 km/h 9.3 km/h 72 % 0 mm 0.0 W/m2 CLR
01:15 -0.2 °C -4.7 °C 1016.5 hPa SW 3.9 km/h 9.3 km/h 72 % 0 mm 0.0 W/m2 CLR
01:20 -0.1 °C -4.7 °C 1016.5 hPa WSW 5 km/h 7.4 km/h 71 % 0 mm 0.0 W/m2 CLR
01:25 -0.1 °C -4.9 °C 1016.5 hPa WSW 2.1 km/h 7.4 km/h 70 % 0 mm 0.0 W/m2 CLR
01:30 -0.1 °C -4.9 °C 1016.5 hPa SW 1.3 km/h 11.1 km/h 70 % 0 mm 0.0 W/m2 CLR
01:35 -0.1 °C -4.9 °C 1016.5 hPa SW 1.1 km/h 11.1 km/h 70 % 0 mm 0.0 W/m2 CLR
01:40 -0.1 °C -4.9 °C 1016.5 hPa Calm   5.6 km/h 70 % 0 mm 0.0 W/m2 CLR
01:45 -0.4 °C -5.2 °C 1016.5 hPa SW 1.1 km/h 5.6 km/h 70 % 0 mm 0.0 W/m2 CLR
01:50 -0.6 °C -5.2 °C 1016.5 hPa Calm   4.8 km/h 71 % 0 mm 0.0 W/m2 CLR
01:55 -0.6 °C -5.2 °C 1016.5 hPa SW 1.6 km/h 6.4 km/h 71 % 0 mm 0.0 W/m2 CLR
02:00 -0.6 °C -5.2 °C 1016.5 hPa SW 0.3 km/h 5.6 km/h 71 % 0 mm 0.0 W/m2 CLR
02:05 -0.5 °C -5.1 °C 1016.5 hPa Calm   6.4 km/h 71 % 0 mm 0.0 W/m2 CLR
02:10 -0.6 °C -5.2 °C 1016.5 hPa Calm   6.4 km/h 71 % 0 mm 0.0 W/m2 CLR
02:15 -0.7 °C -5.1 °C 1016.5 hPa Calm   5.6 km/h 72 % 0 mm 0.0 W/m2 CLR
02:20 -0.8 °C -5.2 °C 1016.5 hPa WSW 1.6 km/h 6.4 km/h 72 % 0 mm 0.0 W/m2 CLR
02:23 -0.8 °C -5.2 °C 1016.8 hPa WSW 2.4 km/h 5.6 km/h 72 % 0 mm 0.0 W/m2 CLR
02:28 -0.7 °C -5.1 °C 1016.5 hPa WSW 0.8 km/h 11.1 km/h 72 % 0 mm 0.0 W/m2 CLR
02:33 -0.7 °C -5.1 °C 1016.5 hPa WSW 1.1 km/h 11.1 km/h 72 % 0 mm 0.0 W/m2 CLR
02:38 -0.7 °C -5.1 °C 1016.5 hPa WSW 0.6 km/h 5.6 km/h 72 % 0 mm 0.0 W/m2 CLR
02:43 -0.7 °C -5.1 °C 1016.8 hPa Calm   5.6 km/h 72 % 0 mm 0.0 W/m2 CLR
02:48 -0.8 °C -5.2 °C 1016.5 hPa WSW 1.3 km/h 5.6 km/h 72 % 0 mm 0.0 W/m2 CLR
02:53 -0.9 °C -5.3 °C 1016.5 hPa WSW 2.3 km/h 5.6 km/h 72 % 0 mm 0.0 W/m2 CLR
02:58 -1 °C -5.4 °C 1016.5 hPa Calm   5.6 km/h 72 % 0 mm 0.0 W/m2 CLR
03:03 -1.1 °C -5.3 °C 1016.5 hPa WSW 1.1 km/h 5.6 km/h 73 % 0 mm 0.0 W/m2 CLR
03:08 -0.9 °C -5.2 °C 1016.5 hPa Calm   7.4 km/h 73 % 0 mm 0.0 W/m2 CLR
03:13 -0.9 °C -5.3 °C 1016.5 hPa SW 2.9 km/h 11.1 km/h 72 % 0 mm 0.0 W/m2 CLR
03:18 -0.9 °C -5.3 °C 1016.5 hPa WSW 2.3 km/h 11.1 km/h 72 % 0 mm 0.0 W/m2 CLR
03:23 -0.9 °C -5.3 °C 1016.5 hPa WSW 2.6 km/h 11.1 km/h 72 % 0 mm 0.0 W/m2 CLR
03:28 -0.9 °C -5.3 °C 1016.5 hPa WSW 0.3 km/h 5.6 km/h 72 % 0 mm 0.0 W/m2 CLR
03:33 -1 °C -5.4 °C 1016.5 hPa WSW 0.6 km/h 5.6 km/h 72 % 0 mm 0.0 W/m2 CLR
03:38 -1 °C -5.2 °C 1016.5 hPa WSW 1.6 km/h 5.6 km/h 73 % 0 mm 0.0 W/m2 CLR
03:43 -1 °C -5.4 °C 1016.5 hPa WSW 2.9 km/h 7.4 km/h 72 % 0 mm 0.0 W/m2 CLR
03:48 -0.9 °C -5.3 °C 1016.1 hPa SW 2.1 km/h 7.4 km/h 72 % 0 mm 0.0 W/m2 CLR
03:53 -1 °C -5.4 °C 1016.5 hPa Calm   7.4 km/h 72 % 0 mm 0.0 W/m2 CLR
03:58 -1.1 °C -5.3 °C 1016.5 hPa SW 0.8 km/h 5.6 km/h 73 % 0 mm 0.0 W/m2 CLR
04:03 -1.2 °C -5.4 °C 1016.5 hPa SW 1 km/h 5.6 km/h 73 % 0 mm 0.0 W/m2 CLR
04:08 -1.3 °C -5.3 °C 1016.5 hPa Calm   5.6 km/h 74 % 0 mm 0.0 W/m2 CLR
04:13 -1.3 °C -5.4 °C 1016.5 hPa SW 1.9 km/h 5.6 km/h 74 % 0 mm 0.0 W/m2 CLR
04:18 -1.4 °C -5.4 °C 1016.5 hPa SW 2.1 km/h 5.6 km/h 74 % 0 mm 0.0 W/m2 CLR
04:23 -1.5 °C -5.6 °C 1016.5 hPa SW 3.1 km/h 5.6 km/h 74 % 0 mm 0.0 W/m2 CLR
04:28 -1.6 °C -5.4 °C 1016.5 hPa SW 2.9 km/h 5.6 km/h 75 % 0 mm 0.0 W/m2 CLR
04:33 -1.6 °C -5.4 °C 1016.5 hPa SW 3.2 km/h 5.6 km/h 75 % 0 mm 0.0 W/m2 CLR
04:38 -1.7 °C -5.5 °C 1016.5 hPa SW 4.8 km/h 5.6 km/h 75 % 0 mm 0.0 W/m2 CLR
04:43 -1.7 °C -5.5 °C 1016.5 hPa SW 1.6 km/h 7.4 km/h 75 % 0 mm 0.0 W/m2 CLR
04:48 -1.7 °C -5.3 °C 1016.5 hPa SW 3.4 km/h 7.4 km/h 76 % 0 mm 0.0 W/m2 CLR
04:53 -1.7 °C -5.3 °C 1016.5 hPa SSW 2.7 km/h 7.4 km/h 76 % 0 mm 0.0 W/m2 CLR
04:58 -1.7 °C -5.4 °C 1016.5 hPa SSW 3.2 km/h 7.4 km/h 76 % 0 mm 0.0 W/m2 CLR
05:03 -1.8 °C -5.4 °C 1016.5 hPa SSW 3.1 km/h 7.4 km/h 76 % 0 mm 0.0 W/m2 CLR
05:08 -1.8 °C -5.4 °C 1016.5 hPa Calm   7.4 km/h 76 % 0 mm 0.0 W/m2 CLR
05:13 -1.9 °C -5.6 °C 1016.5 hPa Calm   5.6 km/h 76 % 0 mm 0.0 W/m2 CLR
05:18 -1.9 °C -5.4 °C 1016.5 hPa Calm     77 % 0 mm 0.0 W/m2 CLR
05:23 -1.9 °C -5.4 °C 1016.5 hPa Calm     77 % 0 mm 0.0 W/m2 CLR
05:28 -2 °C -5.5 °C 1016.8 hPa Calm     77 % 0 mm 0.0 W/m2 CLR
05:33 -2.1 °C -5.6 °C 1016.8 hPa Calm     77 % 0 mm 0.0 W/m2 CLR
05:38 -2.2 °C -5.7 °C 1016.8 hPa Calm     77 % 0 mm 0.0 W/m2 CLR
05:43 -2.3 °C -5.7 °C 1017.2 hPa Calm     78 % 0 mm 0.0 W/m2 CLR
05:48 -2.3 °C -5.7 °C 1017.2 hPa Calm     78 % 0 mm 0.0 W/m2 CLR
05:53 -2.3 °C -5.7 °C 1017.2 hPa SW 1 km/h 5.6 km/h 78 % 0 mm 0.0 W/m2 CLR
05:58 -2.2 °C -5.6 °C 1017.2 hPa Calm   5.6 km/h 78 % 0 mm 0.0 W/m2 CLR
06:03 -2.2 °C -5.5 °C 1017.2 hPa Calm   7.4 km/h 78 % 0 mm 0.0 W/m2 CLR
06:08 -1.9 °C -5.3 °C 1017.2 hPa WSW 2.7 km/h 11.1 km/h 78 % 0 mm 0.0 W/m2 CLR
06:13 -1.8 °C -5.1 °C 1017.2 hPa West 4 km/h 11.1 km/h 78 % 0 mm 0.0 W/m2 CLR
06:18 -1.7 °C -5 °C 1017.5 hPa WSW 3.7 km/h 11.1 km/h 78 % 0 mm 0.0 W/m2 CLR
06:23 -1.6 °C -5.1 °C 1017.5 hPa WSW 1.1 km/h 11.1 km/h 77 % 0 mm 0.0 W/m2 CLR
06:28 -1.7 °C -5.2 °C 1017.5 hPa SW 2.7 km/h 9.3 km/h 77 % 0 mm 0.0 W/m2 CLR
06:33 -1.8 °C -5.3 °C 1017.2 hPa SW 2.7 km/h 9.3 km/h 77 % 0 mm 0.0 W/m2 CLR
06:38 -1.7 °C -5.2 °C 1017.5 hPa SW 3.4 km/h 9.3 km/h 77 % 0 mm 0.0 W/m2 CLR
06:43 -1.7 °C -5.2 °C 1017.5 hPa SW 1 km/h 7.4 km/h 77 % 0 mm 0.0 W/m2 CLR
06:48 -1.7 °C -5.2 °C 1017.5 hPa West 0.3 km/h 7.4 km/h 77 % 0 mm 0.0 W/m2 CLR
06:53 -1.7 °C -5.3 °C 1017.5 hPa WSW 1 km/h 7.4 km/h 76 % 0 mm 0.0 W/m2 CLR
06:58 -1.7 °C -5.3 °C 1017.5 hPa Calm   5.6 km/h 76 % 0 mm 0.0 W/m2 CLR
07:03 -1.6 °C -5.3 °C 1017.5 hPa West 0.5 km/h 5.6 km/h 76 % 0 mm 0.0 W/m2 CLR
07:08 -1.6 °C -5.2 °C 1017.5 hPa West 1.1 km/h 9.3 km/h 76 % 0 mm 0.0 W/m2 CLR
07:13 -1.4 °C -5.1 °C 1017.5 hPa WSW 1.9 km/h 9.3 km/h 76 % 0 mm 0.0 W/m2 CLR
07:18 -1.4 °C -5.2 °C 1017.5 hPa WSW 0.8 km/h 9.3 km/h 75 % 0 mm 5.0 W/m2 CLR
07:23 -1.3 °C -5.2 °C 1017.8 hPa West 1.9 km/h 5.6 km/h 75 % 0 mm 7.0 W/m2 CLR
07:28 -1.4 °C -5.2 °C 1017.5 hPa West 1.4 km/h 5.6 km/h 75 % 0 mm 11.0 W/m2 CLR
07:39 -1.5 °C -5.3 °C 1017.5 hPa Calm   5.6 km/h 75 % 0 mm 14.0 W/m2 CLR
07:44 -1.5 °C -5.3 °C 1017.8 hPa Calm   5.6 km/h 75 % 0 mm 16.0 W/m2 CLR
07:49 -1.4 °C -5.2 °C 1017.8 hPa West 0.2 km/h 5.6 km/h 75 % 0 mm 19.0 W/m2 CLR
07:54 -1.3 °C -5.2 °C 1017.8 hPa Calm   5.6 km/h 75 % 0 mm 19.0 W/m2 CLR
07:59 -1.2 °C -5.1 °C 1017.8 hPa West 4 km/h 9.3 km/h 75 % 0 mm 21.0 W/m2 CLR
08:19 -0.6 °C -4.8 °C 1018.2 hPa WSW 0.5 km/h 5.6 km/h 73 % 0 mm 35.0 W/m2 CLR
08:34 -0.1 °C -4.7 °C 1018.5 hPa SW 2.6 km/h 5.6 km/h 71 % 0 mm 144.0 W/m2 CLR
08:39 0 °C -4.6 °C 1018.5 hPa Calm   5.6 km/h 71 % 0 mm 104.0 W/m2 CLR
08:54 0.2 °C -4.7 °C 1018.5 hPa Calm   3.7 km/h 70 % 0 mm 86.0 W/m2 CLR
09:09 0.4 °C -4.4 °C 1018.5 hPa Calm   5.6 km/h 70 % 0 mm 142.0 W/m2 CLR
09:11 0.5 °C -4.3 °C 1018.5 hPa Calm   5.6 km/h 70 % 0 mm 178.0 W/m2 CLR
09:16 0.8 °C -4.3 °C 1018.5 hPa SW 0.2 km/h 5.6 km/h 69 % 0 mm 153.0 W/m2 CLR
09:21 0.9 °C -4.3 °C 1018.5 hPa SW 2.7 km/h 9.3 km/h 68 % 0 mm 195.0 W/m2 CLR
09:36 1.7 °C -4.2 °C 1018.8 hPa SW 3.5 km/h 13 km/h 65 % 0 mm 169.0 W/m2 CLR
09:41 1.7 °C -4.4 °C 1018.8 hPa SW 3.7 km/h 11.1 km/h 64 % 0 mm 169.0 W/m2 CLR
09:51 1.8 °C -4.3 °C 1018.8 hPa WSW 1.4 km/h 13 km/h 64 % 0 mm 163.0 W/m2 CLR
09:56 1.9 °C -4.2 °C 1018.8 hPa West 3.7 km/h 13 km/h 64 % 0 mm 172.0 W/m2 CLR
10:01 1.9 °C -4.2 °C 1018.8 hPa West 3.5 km/h 13 km/h 64 % 0 mm 181.0 W/m2 CLR
10:06 1.9 °C -4.4 °C 1018.8 hPa SW 4.3 km/h 13 km/h 63 % 0 mm 178.0 W/m2 BKN
10:11 2 °C -4.3 °C 1019.2 hPa West 3.7 km/h 11.1 km/h 63 % 0 mm 151.0 W/m2 BKN
10:16 2.2 °C -4.2 °C 1019.2 hPa West 1.4 km/h 13 km/h 63 % 0 mm 151.0 W/m2 BKN
10:21 2.1 °C -4.5 °C 1019.2 hPa WSW 12.4 km/h 13 km/h 62 % 0 mm 141.0 W/m2 BKN
10:31 2.1 °C -4.4 °C 1018.8 hPa WSW 7.4 km/h 18.5 km/h 62 % 0 mm 144.0 W/m2 BKN
10:36 2.2 °C -4.3 °C 1018.8 hPa WSW 1 km/h 18.5 km/h 62 % 0 mm 139.0 W/m2 BKN
10:46 2.3 °C -4.2 °C 1018.8 hPa WSW 3.2 km/h 14.8 km/h 62 % 0 mm 134.0 W/m2 BKN
10:51 2.3 °C -4.2 °C 1018.8 hPa SW 1.8 km/h 18.5 km/h 62 % 0 mm 148.0 W/m2 BKN
10:56 2.4 °C -4.2 °C 1018.5 hPa WSW 3.9 km/h 18.5 km/h 62 % 0 mm 158.0 W/m2 BKN
11:01 2.5 °C -4.1 °C 1018.5 hPa SW 1.6 km/h 18.5 km/h 62 % 0 mm 160.0 W/m2 OVC
11:06 2.6 °C -4 °C 1018.5 hPa SW 0.8 km/h 18.5 km/h 62 % 0 mm 195.0 W/m2 OVC
11:11 2.7 °C -4.1 °C 1018.5 hPa SW 5.3 km/h 9.3 km/h 61 % 0 mm 241.0 W/m2 OVC
11:21 3.2 °C -3.8 °C 1018.2 hPa SSW 5.6 km/h 16.7 km/h 60 % 0 mm 408.0 W/m2 OVC
11:26 3.6 °C -3.9 °C 1018.2 hPa WSW 7.7 km/h 20.4 km/h 58 % 0 mm 246.0 W/m2 OVC
11:31 3.5 °C -4 °C 1018.2 hPa WNW 3.2 km/h 20.4 km/h 58 % 0 mm 237.0 W/m2 OVC
11:36 3.4 °C -4.3 °C 1017.8 hPa WSW 14.8 km/h 25.9 km/h 57 % 0 mm 279.0 W/m2 OVC
11:41 3.6 °C -4.1 °C 1017.8 hPa WSW 5.3 km/h 25.9 km/h 57 % 0 mm 281.0 W/m2 OVC
11:51 3.8 °C -4.2 °C 1017.8 hPa West 6.3 km/h 25.9 km/h 56 % 0 mm 213.0 W/m2 OVC
12:01 3.9 °C -4.3 °C 1017.5 hPa WSW 13 km/h 33.3 km/h 55 % 0 mm 475.0 W/m2 BKN
12:06 4.1 °C -4.2 °C 1017.5 hPa WSW 16.3 km/h 33.3 km/h 55 % 0 mm 446.0 W/m2 BKN
12:11 4.4 °C -3.9 °C 1017.2 hPa WSW 0.5 km/h 27.8 km/h 55 % 0 mm 446.0 W/m2 BKN
12:16 4.4 °C -4.1 °C 1017.2 hPa SSW 6.3 km/h 27.8 km/h 54 % 0 mm 448.0 W/m2 BKN
12:21 4.3 °C -3.9 °C 1017.2 hPa WSW 5.3 km/h 25.9 km/h 55 % 0 mm 445.0 W/m2 BKN
12:26 4.3 °C -4.4 °C 1017.2 hPa WSW 9.7 km/h 25.9 km/h 53 % 0 mm 443.0 W/m2 BKN
12:31 4.3 °C -4.4 °C 1016.8 hPa SSW 14.6 km/h 25.9 km/h 53 % 0 mm 441.0 W/m2 BKN
12:36 4.4 °C -4.3 °C 1016.8 hPa SW 13.7 km/h 25.9 km/h 53 % 0 mm 445.0 W/m2 BKN
12:37 4.4 °C -4.3 °C 1016.8 hPa SW 13 km/h 25.9 km/h 53 % 0 mm 445.0 W/m2 BKN
12:47 4.7 °C -4.6 °C 1016.8 hPa West 17.9 km/h 25.9 km/h 51 % 0 mm 431.0 W/m2 BKN
12:52 4.6 °C -4.4 °C 1016.5 hPa West 11.7 km/h 29.6 km/h 52 % 0 mm 417.0 W/m2 BKN
12:57 5 °C -4.1 °C 1016.5 hPa WSW 8 km/h 29.6 km/h 52 % 0 mm 420.0 W/m2 BKN
13:07 4.7 °C -4.3 °C 1016.5 hPa West 10 km/h 20.4 km/h 52 % 0 mm 415.0 W/m2 FEW
13:22 5.3 °C -4 °C 1016.5 hPa WSW 2.7 km/h 20.4 km/h 51 % 0 mm 378.0 W/m2 FEW
13:37 5.3 °C -3.7 °C 1015.8 hPa WNW 4.3 km/h 20.4 km/h 52 % 0 mm 362.0 W/m2 FEW
13:42 5.2 °C -3.8 °C 1015.8 hPa WSW 4.8 km/h 20.4 km/h 52 % 0 mm 350.0 W/m2 FEW
13:47 5.4 °C -3.7 °C 1015.8 hPa WSW 5 km/h 20.4 km/h 52 % 0 mm 341.0 W/m2 FEW
13:52 5.3 °C -4.1 °C 1015.8 hPa SW 10.1 km/h 24.1 km/h 51 % 0 mm 338.0 W/m2 FEW
13:57 5.2 °C -3.8 °C 1015.8 hPa West 3.5 km/h 24.1 km/h 52 % 0 mm 327.0 W/m2 FEW
14:07 5.3 °C -4 °C 1015.8 hPa SW 5.8 km/h 27.8 km/h 51 % 0 mm 301.0 W/m2 CLR
14:12 5.3 °C -3.8 °C 1015.8 hPa WSW 10.9 km/h 22.2 km/h 52 % 0 mm 292.0 W/m2 CLR
14:17 5.3 °C -4.1 °C 1015.8 hPa Calm   22.2 km/h 51 % 0 mm 67.0 W/m2 CLR
14:22 5.2 °C -4.4 °C 1015.8 hPa SSW 9.7 km/h 25.9 km/h 50 % 0 mm 230.0 W/m2 CLR
14:32 4.9 °C -4.4 °C 1015.8 hPa WSW 9.2 km/h 24.1 km/h 51 % 0 mm 60.0 W/m2 CLR
14:37 4.7 °C -4.3 °C 1015.8 hPa SW 6.1 km/h 24.1 km/h 52 % 0 mm 53.0 W/m2 CLR
14:42 4.6 °C -4.2 °C 1015.8 hPa West 9 km/h 20.4 km/h 53 % 0 mm 63.0 W/m2 CLR
14:47 4.6 °C -4.2 °C 1015.8 hPa WSW 2.4 km/h 20.4 km/h 53 % 0 mm 72.0 W/m2 CLR
14:53 4.7 °C -4.3 °C 1015.8 hPa SW 12.7 km/h 24.1 km/h 52 % 0 mm 165.0 W/m2 CLR
14:58 4.9 °C -4.1 °C 1015.8 hPa SW 13.2 km/h 24.1 km/h 52 % 0 mm 206.0 W/m2 CLR
15:03 5.1 °C -4.5 °C 1015.8 hPa SW 0.6 km/h 24.1 km/h 50 % 0 mm 153.0 W/m2 OVC
15:07 5.2 °C -4.2 °C 1015.8 hPa SSW 9 km/h 22.2 km/h 51 % 0 mm 109.0 W/m2 OVC
15:13 5 °C -4.3 °C 1015.8 hPa SW 1.3 km/h 18.5 km/h 51 % 0 mm 83.0 W/m2 OVC
15:18 4.8 °C -4.2 °C 1015.8 hPa WSW 3.4 km/h 18.5 km/h 52 % 0 mm 81.0 W/m2 OVC
15:28 4.8 °C -4.4 °C 1015.8 hPa WSW 7.1 km/h 18.5 km/h 51 % 0 mm 76.0 W/m2 OVC
15:33 4.8 °C -4.2 °C 1015.8 hPa WSW 6.9 km/h 18.5 km/h 52 % 0 mm 67.0 W/m2 OVC
15:38 4.8 °C -4.3 °C 1015.8 hPa WSW 10.1 km/h 18.5 km/h 52 % 0 mm 39.0 W/m2 OVC
15:43 4.8 °C -4.5 °C 1016.1 hPa WSW 11.1 km/h 18.5 km/h 51 % 0 mm 28.0 W/m2 OVC
15:48 4.8 °C -4.3 °C 1015.8 hPa WSW 4.8 km/h 18.5 km/h 52 % 0 mm 30.0 W/m2 OVC
15:53 4.7 °C -4.6 °C 1015.8 hPa WSW 6.3 km/h 18.5 km/h 51 % 0 mm 28.0 W/m2 OVC
15:58 4.7 °C -4.6 °C 1015.8 hPa SW 1 km/h 18.5 km/h 51 % 0 mm 42.0 W/m2 OVC
16:03 4.7 °C -4.6 °C 1015.8 hPa WSW 1.8 km/h 20.4 km/h 51 % 0 mm 32.0 W/m2 OVC
16:14 4.5 °C -4.5 °C 1015.8 hPa WSW 5 km/h 18.5 km/h 52 % 0 mm 21.0 W/m2 OVC
16:29 4.2 °C -4.8 °C 1015.8 hPa WSW 5 km/h 20.4 km/h 52 % 0 mm 5.0 W/m2 OVC
16:49 3.6 °C -4.4 °C 1015.5 hPa Calm   1.9 km/h 56 % 0 mm 0.0 W/m2 OVC
16:54 3.4 °C -4.5 °C 1015.5 hPa Calm   1.9 km/h 56 % 0 mm 0.0 W/m2 OVC
16:59 3.4 °C -4.6 °C 1015.5 hPa Calm     56 % 0 mm 0.0 W/m2 OVC
17:04 3.4 °C -4.6 °C 1015.5 hPa Calm     56 % 0 mm 0.0 W/m2 SCT
17:14 3.4 °C -4.5 °C 1015.5 hPa Calm     56 % 0 mm 0.0 W/m2 SCT
17:19 3.4 °C -4.6 °C 1015.5 hPa Calm     56 % 0 mm 0.0 W/m2 SCT
17:24 3.4 °C -4.6 °C 1015.5 hPa Calm     56 % 0 mm 0.0 W/m2 SCT
17:39 3.2 °C -4.7 °C 1015.8 hPa Calm   3.7 km/h 56 % 0 mm 0.0 W/m2 SCT
17:44 3.2 °C -4.7 °C 1015.8 hPa Calm   1.9 km/h 56 % 0 mm 0.0 W/m2 SCT
17:49 3.2 °C -4.7 °C 1015.8 hPa Calm     56 % 0 mm 0.0 W/m2 SCT
17:54 3.2 °C -4.7 °C 1015.8 hPa Calm     56 % 0 mm 0.0 W/m2 SCT
17:59 3.1 °C -4.8 °C 1015.8 hPa Calm     56 % 0 mm 0.0 W/m2 SCT
18:04 2.9 °C -4.8 °C 1015.8 hPa Calm     57 % 0 mm 0.0 W/m2 OVC
18:09 2.8 °C -4.8 °C 1015.8 hPa Calm     57 % 0 mm 0.0 W/m2 OVC
18:14 2.8 °C -4.8 °C 1015.8 hPa Calm     57 % 0 mm 0.0 W/m2 OVC
18:24 3.1 °C -4.6 °C 1016.1 hPa Calm     57 % 0 mm 0.0 W/m2 OVC
18:29 3.2 °C -4.7 °C 1016.1 hPa SW 0.2 km/h   56 % 0 mm 0.0 W/m2 OVC
18:39 3.4 °C -4.5 °C 1016.1 hPa Calm   1.9 km/h 56 % 0 mm 0.0 W/m2 OVC
18:44 3.5 °C -4.4 °C 1016.1 hPa Calm   1.9 km/h 56 % 0 mm 0.0 W/m2 OVC
18:54 3.5 °C -4.2 °C 1016.5 hPa Calm   5.6 km/h 57 % 0 mm 0.0 W/m2 OVC
19:09 3.3 °C -4.2 °C 1016.1 hPa WNW 0.6 km/h 3.7 km/h 58 % 0 mm 0.0 W/m2 OVC
19:14 3.2 °C -4.3 °C 1016.5 hPa WNW 3.2 km/h 11.1 km/h 58 % 0 mm 0.0 W/m2 OVC
19:19 3.3 °C -4.2 °C 1016.5 hPa WNW 0.2 km/h 11.1 km/h 58 % 0 mm 0.0 W/m2 OVC
19:25 3.4 °C -4.1 °C 1016.5 hPa Calm   11.1 km/h 58 % 0 mm 0.0 W/m2 OVC
19:30 3.6 °C -4.2 °C 1016.5 hPa WNW 0.3 km/h 13 km/h 57 % 0 mm 0.0 W/m2 OVC
19:35 3.6 °C -4.1 °C 1016.5 hPa West 0.3 km/h 13 km/h 57 % 0 mm 0.0 W/m2 OVC
19:45 3.7 °C -3.6 °C 1016.5 hPa West 0.2 km/h 14.8 km/h 59 % 0 mm 0.0 W/m2 OVC
19:50 3.6 °C -3.7 °C 1016.5 hPa West 0.8 km/h 14.8 km/h 59 % 0 mm 0.0 W/m2 OVC
19:55 3.3 °C -3.7 °C 1016.5 hPa Calm   11.1 km/h 60 % 0 mm 0.0 W/m2 OVC
20:00 3.1 °C -3.5 °C 1016.8 hPa Calm   11.1 km/h 62 % 0 mm 0.0 W/m2 OVC
20:15 2.9 °C -3.4 °C 1016.8 hPa Calm   1.9 km/h 63 % 0 mm 0.0 W/m2 OVC
20:20 2.9 °C -3.4 °C 1017.2 hPa Calm   1.9 km/h 63 % 0 mm 0.0 W/m2 OVC
20:35 2.7 °C -3.4 °C 1016.8 hPa Calm     64 % 0 mm 0.0 W/m2 OVC
20:45 2.6 °C -3.6 °C 1017.2 hPa Calm     64 % 0 mm 0.0 W/m2 OVC
20:50 2.4 °C -3.5 °C 1017.2 hPa Calm     65 % 0 mm 0.0 W/m2 OVC
20:55 2.4 °C -3.3 °C 1017.2 hPa Calm     66 % 0 mm 0.0 W/m2 OVC
21:00 2.4 °C -3.3 °C 1017.5 hPa Calm     66 % 0 mm 0.0 W/m2 OVC
21:05 2.6 °C -3.1 °C 1017.5 hPa Calm     66 % 0 mm 0.0 W/m2 BKN
21:10 2.7 °C -2.8 °C 1017.5 hPa West 0.5 km/h 14.8 km/h 67 % 0 mm 0.0 W/m2 BKN
21:15 2.6 °C -2.3 °C 1017.8 hPa West 10.1 km/h 24.1 km/h 70 % 0 mm 0.0 W/m2 BKN
21:20 2.4 °C -2.3 °C 1017.5 hPa West 10 km/h 24.1 km/h 71 % 0 mm 0.0 W/m2 BKN
21:30 1.9 °C -2 °C 1017.5 hPa Calm   14.8 km/h 75 % 0 mm 0.0 W/m2 BKN
21:35 1.8 °C -1.9 °C 1017.8 hPa Calm     76 % 0 mm 0.0 W/m2 BKN
21:40 1.8 °C -1.8 °C 1017.8 hPa Calm     77 % 0 mm 0.0 W/m2 BKN
21:50 1.8 °C -1.6 °C 1017.8 hPa WSW 8 km/h 19.3 km/h 78 % 0 mm 0.0 W/m2 BKN
22:00 1.9 °C -1.7 °C 1017.5 hPa SW 0.8 km/h 16.7 km/h 77 % 0 mm 0.0 W/m2 BKN
22:05 1.9 °C -1.7 °C 1017.8 hPa SW 0.2 km/h 16.7 km/h 77 % 0 mm 0.0 W/m2 -SN
22:10 1.9 °C -1.7 °C 1017.8 hPa WSW 1.6 km/h 16.7 km/h 77 % 0 mm 0.0 W/m2 -SN
22:16 1.9 °C -1.7 °C 1017.8 hPa SW 0.5 km/h 7.4 km/h 77 % 0 mm 0.0 W/m2 -SN
22:19 1.9 °C -1.7 °C 1017.8 hPa SW 1.9 km/h 7.4 km/h 77 % 0 mm 0.0 W/m2 -SN
22:21 1.9 °C -1.7 °C 1017.8 hPa SW 0.2 km/h 11.1 km/h 77 % 0 mm 0.0 W/m2 -SN
22:24 1.9 °C -1.7 °C 1017.5 hPa WSW 0.2 km/h 11.1 km/h 77 % 0 mm 0.0 W/m2 -SN
22:26 1.9 °C -1.7 °C 1017.5 hPa Calm   11.1 km/h 77 % 0 mm 0.0 W/m2 -SN
22:37 1.7 °C -1.9 °C 1017.8 hPa SW 0.2 km/h 3.7 km/h 77 % 0 mm 0.0 W/m2 -SN
22:52 1.3 °C -2.1 °C 1017.8 hPa West 2.1 km/h 5.6 km/h 78 % 0 mm 0.0 W/m2 -SN
23:02 1.2 °C -2.2 °C 1017.5 hPa WSW 0.2 km/h 9.3 km/h 78 % 0 mm 0.0 W/m2 BKN
23:07 1.2 °C -2.2 °C 1017.5 hPa West 0.2 km/h 9.3 km/h 78 % 0 mm 0.0 W/m2 BKN
23:12 1.3 °C -2.1 °C 1017.8 hPa Calm   1.9 km/h 78 % 0 mm 0.0 W/m2 BKN
23:17 1.3 °C -2.3 °C 1017.8 hPa Calm   1.9 km/h 77 % 0 mm 0.0 W/m2 BKN
23:37 1.4 °C -2.3 °C 1017.8 hPa Calm   1.9 km/h 76 % 0 mm 0.0 W/m2 BKN
23:47 1.2 °C -2.6 °C 1017.8 hPa Calm   1.9 km/h 76 % 0 mm 0.0 W/m2 BKN
23:52 1.1 °C -2.7 °C 1017.8 hPa Calm     76 % 0 mm 0.0 W/m2 BKN
23:57 1.1 °C -2.6 °C 1017.8 hPa Calm     77 % 0 mm 0.0 W/m2 BKN
Air Products Campus Weather
Compliments of Weather Underground - 3 mb